createdAt,value
2019-02-24T00:01:37.970Z,99.90
2019-02-24T00:04:09.177Z,99.90
2019-02-24T00:06:40.249Z,99.90
2019-02-24T00:09:11.391Z,99.90
2019-02-24T00:11:42.485Z,99.90
2019-02-24T00:14:13.556Z,99.90
2019-02-24T00:16:44.616Z,99.90
2019-02-24T00:19:15.716Z,99.90
2019-02-24T00:21:46.811Z,99.90
2019-02-24T00:24:17.907Z,99.90
2019-02-24T00:26:48.939Z,99.90
2019-02-24T00:29:20.011Z,99.90
2019-02-24T00:31:51.053Z,99.90
2019-02-24T00:34:22.118Z,99.90
2019-02-24T00:36:53.255Z,99.90
2019-02-24T00:39:24.377Z,99.90
2019-02-24T00:41:55.477Z,99.90
2019-02-24T00:44:26.514Z,99.90
2019-02-24T00:46:57.662Z,99.90
2019-02-24T00:49:28.807Z,99.90
2019-02-24T00:51:59.876Z,99.90
2019-02-24T00:54:30.933Z,99.90
2019-02-24T00:57:02.040Z,99.90
2019-02-24T00:59:33.118Z,99.90
2019-02-24T01:02:04.193Z,99.90
2019-02-24T01:04:36.226Z,99.90
2019-02-24T01:07:07.320Z,99.90
2019-02-24T01:09:38.471Z,99.90
2019-02-24T01:12:09.536Z,99.90
2019-02-24T01:14:40.592Z,99.90
2019-02-24T01:17:11.747Z,99.90
2019-02-24T01:19:42.779Z,99.90
2019-02-24T01:22:13.798Z,99.90
2019-02-24T01:24:44.859Z,99.90
2019-02-24T01:27:15.984Z,99.90
2019-02-24T01:29:47.026Z,99.90
2019-02-24T01:32:18.133Z,99.90
2019-02-24T01:34:49.230Z,99.90
2019-02-24T01:37:20.291Z,99.90
2019-02-24T01:39:51.469Z,99.90
2019-02-24T01:42:22.518Z,99.90
2019-02-24T01:44:53.631Z,99.90
2019-02-24T01:47:24.661Z,99.90
2019-02-24T01:49:56.729Z,99.90
2019-02-24T01:52:27.769Z,99.90
2019-02-24T01:54:58.846Z,99.90
2019-02-24T01:57:29.878Z,99.90
2019-02-24T02:00:02.505Z,99.90
2019-02-24T02:02:34.336Z,99.90
2019-02-24T02:05:07.102Z,99.90
2019-02-24T02:07:38.135Z,99.90
2019-02-24T02:10:09.257Z,99.90
2019-02-24T02:12:40.295Z,99.90
2019-02-24T02:15:11.762Z,99.90
2019-02-24T02:17:42.813Z,99.90
2019-02-24T02:20:13.946Z,99.90
2019-02-24T02:22:44.984Z,99.90
2019-02-24T02:25:17.041Z,99.90
2019-02-24T02:27:48.072Z,99.90
2019-02-24T02:30:19.155Z,99.90
2019-02-24T02:32:50.302Z,99.90
2019-02-24T02:35:21.364Z,99.90
2019-02-24T02:37:52.428Z,99.90
2019-02-24T02:40:23.469Z,99.90
2019-02-24T02:42:55.528Z,99.90
2019-02-24T02:45:26.563Z,99.90
2019-02-24T02:47:57.635Z,99.90
2019-02-24T02:50:28.677Z,99.90
2019-02-24T02:52:59.741Z,99.90
2019-02-24T02:55:30.806Z,99.90
2019-02-24T02:58:01.911Z,99.90
2019-02-24T03:00:35.820Z,99.90
2019-02-24T03:03:06.885Z,99.90
2019-02-24T03:05:38.524Z,99.90
2019-02-24T03:08:11.165Z,99.90
2019-02-24T03:10:42.208Z,99.90
2019-02-24T03:13:13.278Z,99.90
2019-02-24T03:15:44.306Z,99.90
2019-02-24T03:18:15.374Z,99.90
2019-02-24T03:20:46.411Z,99.90
2019-02-24T03:23:17.475Z,99.90
2019-02-24T03:25:48.544Z,99.90
2019-02-24T03:28:19.612Z,99.90
2019-02-24T03:30:50.677Z,99.90
2019-02-24T03:33:21.730Z,99.90
2019-02-24T03:35:52.864Z,99.90
2019-02-24T03:38:23.900Z,99.90
2019-02-24T03:40:54.972Z,99.90
2019-02-24T03:43:26.218Z,99.90
2019-02-24T03:45:57.281Z,99.90
2019-02-24T03:48:28.336Z,99.90
2019-02-24T03:50:59.400Z,99.90
2019-02-24T03:53:30.425Z,99.90
2019-02-24T03:56:01.502Z,99.90
2019-02-24T03:58:32.541Z,99.90
2019-02-24T04:01:03.592Z,99.90
2019-02-24T04:03:34.631Z,99.90
2019-02-24T04:06:05.698Z,99.90
2019-02-24T04:08:36.724Z,99.90
2019-02-24T04:11:07.794Z,99.90
2019-02-24T04:13:38.829Z,99.90
2019-02-24T04:16:09.898Z,99.90
2019-02-24T04:18:40.942Z,99.90
2019-02-24T04:21:12.024Z,99.90
2019-02-24T04:23:43.083Z,99.90
2019-02-24T04:26:14.145Z,99.90
2019-02-24T04:28:45.212Z,99.90
2019-02-24T04:31:16.254Z,99.90
2019-02-24T04:33:48.320Z,99.90
2019-02-24T04:36:19.351Z,99.90
2019-02-24T04:38:51.056Z,99.90
2019-02-24T04:41:22.111Z,99.90
2019-02-24T04:43:53.178Z,99.90
2019-02-24T04:46:25.228Z,99.90
2019-02-24T04:48:56.296Z,99.90
2019-02-24T04:51:27.323Z,99.90
2019-02-24T04:53:58.392Z,99.90
2019-02-24T04:56:29.435Z,99.90
2019-02-24T04:59:00.520Z,99.90
2019-02-24T05:01:31.561Z,99.90
2019-02-24T05:04:02.634Z,99.90
2019-02-24T05:06:33.665Z,99.90
2019-02-24T05:09:04.840Z,99.90
2019-02-24T05:11:35.867Z,99.90
2019-02-24T05:14:06.945Z,99.90
2019-02-24T05:16:38.010Z,99.90
2019-02-24T05:19:09.046Z,99.90
2019-02-24T05:21:40.123Z,99.90
2019-02-24T05:24:11.160Z,99.90
2019-02-24T05:26:42.221Z,99.90
2019-02-24T05:29:13.251Z,99.90
2019-02-24T05:31:44.314Z,99.90
2019-02-24T05:34:15.350Z,99.90
2019-02-24T05:36:46.431Z,99.90
2019-02-24T05:39:17.461Z,99.90
2019-02-24T05:41:48.528Z,99.90
2019-02-24T05:44:19.563Z,99.90
2019-02-24T05:46:50.627Z,99.90
2019-02-24T05:49:21.661Z,99.90
2019-02-24T05:51:52.734Z,99.90
2019-02-24T05:54:23.775Z,99.90
2019-02-24T05:56:54.845Z,99.90
2019-02-24T05:59:25.891Z,99.90
2019-02-24T06:01:56.970Z,99.90
2019-02-24T06:04:28.009Z,99.90
2019-02-24T06:06:59.078Z,99.90
2019-02-24T06:09:30.120Z,99.90
2019-02-24T06:12:01.199Z,99.90
2019-02-24T06:14:32.277Z,99.90
2019-02-24T06:17:03.315Z,99.90
2019-02-24T06:19:34.387Z,99.90
2019-02-24T06:22:05.449Z,99.90
2019-02-24T06:24:36.516Z,99.90
2019-02-24T06:27:07.560Z,99.90
2019-02-24T06:29:38.660Z,99.90
2019-02-24T06:32:09.691Z,99.90
2019-02-24T06:34:40.835Z,99.90
2019-02-24T06:37:11.877Z,99.90
2019-02-24T06:39:42.941Z,99.90
2019-02-24T06:42:13.992Z,99.90
2019-02-24T06:44:45.115Z,99.90
2019-02-24T06:47:16.153Z,99.90
2019-02-24T06:49:47.221Z,99.90
2019-02-24T06:52:19.837Z,99.90
2019-02-24T06:54:50.907Z,99.90
2019-02-24T06:57:21.945Z,99.90
2019-02-24T06:59:53.007Z,99.90
2019-02-24T07:02:24.118Z,99.90
2019-02-24T07:04:55.191Z,99.90
2019-02-24T07:07:26.313Z,99.90
2019-02-24T07:09:57.425Z,99.90
2019-02-24T07:12:28.437Z,99.90
2019-02-24T07:14:59.474Z,99.90
2019-02-24T07:17:30.548Z,99.90
2019-02-24T07:20:01.586Z,99.90
2019-02-24T07:22:32.728Z,99.90
2019-02-24T07:25:03.992Z,99.90
2019-02-24T07:27:35.194Z,99.90
2019-02-24T07:30:09.630Z,99.90
2019-02-24T07:32:40.699Z,99.90
2019-02-24T07:35:11.728Z,99.90
2019-02-24T07:37:42.901Z,99.90
2019-02-24T07:40:13.928Z,99.90
2019-02-24T07:42:45.006Z,99.90
2019-02-24T07:45:16.034Z,99.90
2019-02-24T07:47:47.105Z,99.90
2019-02-24T07:50:18.136Z,99.90
2019-02-24T07:52:49.213Z,99.90
2019-02-24T07:55:20.210Z,99.90
2019-02-24T07:57:51.251Z,99.90
2019-02-24T08:00:22.312Z,99.90
2019-02-24T08:02:53.423Z,99.90
2019-02-24T08:05:24.488Z,99.90
2019-02-24T08:07:55.527Z,99.90
2019-02-24T08:10:26.596Z,99.90
2019-02-24T08:12:58.633Z,99.90
2019-02-24T08:15:29.702Z,99.90
2019-02-24T08:18:00.735Z,99.90
2019-02-24T08:20:33.394Z,99.90
2019-02-24T08:23:04.616Z,99.90
2019-02-24T08:25:35.688Z,99.90
2019-02-24T08:28:07.718Z,99.90
2019-02-24T08:30:41.535Z,99.90
2019-02-24T08:33:11.584Z,99.90
2019-02-24T08:35:42.646Z,99.90
2019-02-24T08:38:13.684Z,99.90
2019-02-24T08:40:44.747Z,99.90
2019-02-24T08:43:15.789Z,99.90
2019-02-24T08:45:46.860Z,99.90
2019-02-24T08:48:19.264Z,99.90
2019-02-24T08:50:50.476Z,99.90
2019-02-24T08:53:21.541Z,99.90
2019-02-24T08:55:52.582Z,99.90
2019-02-24T08:58:23.658Z,99.90
2019-02-24T09:00:54.691Z,99.90
2019-02-24T09:03:25.747Z,99.90
2019-02-24T09:05:56.895Z,99.90
2019-02-24T09:08:29.493Z,99.90
2019-02-24T09:11:00.528Z,99.90
2019-02-24T09:13:31.575Z,99.90
2019-02-24T09:16:02.620Z,99.90
2019-02-24T09:18:33.680Z,99.90
2019-02-24T09:21:04.697Z,99.90
2019-02-24T09:23:35.773Z,99.90
2019-02-24T09:26:06.810Z,99.90
2019-02-24T09:28:37.906Z,99.90
2019-02-24T09:31:08.941Z,99.90
2019-02-24T09:33:40.002Z,99.90
2019-02-24T09:36:11.040Z,99.00
2019-02-24T09:38:42.339Z,98.10
2019-02-24T09:41:13.432Z,98.60
2019-02-24T09:43:44.383Z,98.70
2019-02-24T09:46:15.449Z,99.00
2019-02-24T09:48:46.475Z,97.00
2019-02-24T09:51:17.588Z,96.80
2019-02-24T09:53:49.781Z,97.80
2019-02-24T09:56:20.955Z,98.60
2019-02-24T09:58:51.984Z,96.50
2019-02-24T10:01:23.039Z,97.10
2019-02-24T10:03:54.062Z,96.30
2019-02-24T10:06:25.129Z,96.50
2019-02-24T10:08:56.156Z,95.90
2019-02-24T10:11:27.288Z,94.50
2019-02-24T10:13:58.364Z,93.90
2019-02-24T10:16:29.603Z,92.90
2019-02-24T10:19:00.794Z,93.20
2019-02-24T10:21:31.869Z,92.30
2019-02-24T10:24:05.421Z,91.90
2019-02-24T10:26:36.491Z,90.30
2019-02-24T10:29:07.617Z,86.70
2019-02-24T10:31:38.638Z,80.90
2019-02-24T10:34:09.697Z,78.80
2019-02-24T10:36:40.732Z,69.30
2019-02-24T10:39:13.820Z,63.00
2019-02-24T10:41:47.849Z,50.70
2019-02-24T10:44:18.918Z,43.30
2019-02-24T10:46:49.945Z,37.40
2019-02-24T10:49:21.011Z,32.00
2019-02-24T10:51:52.066Z,31.90
2019-02-24T10:54:23.248Z,32.00
2019-02-24T10:56:54.432Z,33.50
2019-02-24T10:59:28.262Z,36.10
2019-02-24T11:01:59.301Z,37.70
2019-02-24T11:04:30.370Z,39.70
2019-02-24T11:07:01.403Z,41.20
2019-02-24T11:09:32.467Z,41.50
2019-02-24T11:12:03.500Z,41.10
2019-02-24T11:14:34.633Z,41.40
2019-02-24T11:17:05.673Z,40.10
2019-02-24T11:19:36.737Z,40.10
2019-02-24T11:22:07.811Z,40.30
2019-02-24T11:24:38.848Z,42.40
2019-02-24T11:27:09.993Z,40.60
2019-02-24T11:29:41.031Z,39.10
2019-02-24T11:32:12.107Z,39.30
2019-02-24T11:34:43.145Z,36.10
2019-02-24T11:37:14.214Z,36.20
2019-02-24T11:39:45.249Z,36.70
2019-02-24T11:42:16.323Z,36.70
2019-02-24T11:44:47.351Z,38.40
2019-02-24T11:47:18.541Z,39.00
2019-02-24T11:49:49.571Z,39.20
2019-02-24T11:52:20.644Z,39.60
2019-02-24T11:54:51.684Z,39.20
2019-02-24T11:57:22.745Z,39.80
2019-02-24T11:59:54.807Z,38.50
2019-02-24T12:02:33.994Z,38.80
2019-02-24T12:04:58.605Z,39.50
2019-02-24T12:07:29.669Z,38.30
2019-02-24T12:10:00.704Z,38.70
2019-02-24T12:12:31.765Z,39.60
2019-02-24T12:15:02.831Z,40.40
2019-02-24T12:17:34.296Z,40.10
2019-02-24T12:20:08.369Z,42.30
2019-02-24T12:22:39.433Z,43.60
2019-02-24T12:25:12.503Z,44.10
2019-02-24T12:27:44.570Z,44.20
2019-02-24T12:30:19.217Z,45.10
2019-02-24T12:32:50.286Z,45.40
2019-02-24T12:35:21.365Z,46.40
2019-02-24T12:37:52.423Z,46.60
2019-02-24T12:40:23.496Z,47.40
2019-02-24T12:42:54.675Z,47.30
2019-02-24T12:45:25.836Z,48.30
2019-02-24T12:47:56.870Z,47.00
2019-02-24T12:50:27.955Z,46.80
2019-02-24T12:52:59.005Z,46.10
2019-02-24T12:55:30.176Z,47.50
2019-02-24T12:58:01.239Z,47.70
2019-02-24T13:00:32.420Z,47.40
2019-02-24T13:03:03.458Z,47.40
2019-02-24T13:05:35.605Z,47.40
2019-02-24T13:08:06.638Z,46.70
2019-02-24T13:10:37.706Z,46.80
2019-02-24T13:13:08.738Z,47.80
2019-02-24T13:15:39.809Z,47.40
2019-02-24T13:18:10.852Z,45.40
2019-02-24T13:20:41.922Z,47.00
2019-02-24T13:23:13.098Z,45.70
2019-02-24T13:25:45.774Z,43.10
2019-02-24T13:28:18.467Z,41.60
2019-02-24T13:30:49.626Z,39.20
2019-02-24T13:33:20.690Z,39.20
2019-02-24T13:35:51.904Z,37.10
2019-02-24T13:38:23.664Z,37.60
2019-02-24T13:40:54.732Z,37.70
2019-02-24T13:43:25.798Z,37.70
2019-02-24T13:45:56.835Z,37.70
2019-02-24T13:48:27.902Z,38.10
2019-02-24T13:50:58.935Z,38.70
2019-02-24T13:53:30.001Z,39.00
2019-02-24T13:56:02.049Z,39.10
2019-02-24T13:58:33.116Z,38.00
2019-02-24T14:01:04.162Z,36.60
2019-02-24T14:03:35.269Z,36.90
2019-02-24T14:06:06.322Z,36.30
2019-02-24T14:08:37.490Z,36.40
2019-02-24T14:11:08.638Z,35.50
2019-02-24T14:13:39.696Z,34.70
2019-02-24T14:16:10.738Z,33.90
2019-02-24T14:18:41.804Z,34.00
2019-02-24T14:21:12.882Z,34.20
2019-02-24T14:23:43.902Z,33.60
2019-02-24T14:26:14.978Z,31.30
2019-02-24T14:28:45.981Z,31.70
2019-02-24T14:31:17.024Z,29.80
2019-02-24T14:33:48.069Z,30.80
2019-02-24T14:36:19.113Z,29.30
2019-02-24T14:38:51.118Z,28.70
2019-02-24T14:41:22.151Z,28.10
2019-02-24T14:43:53.178Z,28.10
2019-02-24T14:46:24.319Z,27.40
2019-02-24T14:48:55.325Z,27.00
2019-02-24T14:51:26.402Z,26.70
2019-02-24T14:53:58.407Z,26.80
2019-02-24T14:56:29.460Z,26.20
2019-02-24T14:59:00.468Z,25.70
2019-02-24T15:01:31.507Z,25.40
2019-02-24T15:04:02.552Z,24.70
2019-02-24T15:06:33.678Z,25.00
2019-02-24T15:09:05.625Z,26.10
2019-02-24T15:11:38.243Z,25.50
2019-02-24T15:14:09.295Z,25.10
2019-02-24T15:16:40.289Z,24.50
2019-02-24T15:19:11.327Z,25.10
2019-02-24T15:21:42.341Z,24.10
2019-02-24T15:24:13.369Z,24.40
2019-02-24T15:26:44.394Z,24.90
2019-02-24T15:29:15.428Z,25.30
2019-02-24T15:31:46.815Z,24.80
2019-02-24T15:34:20.546Z,25.90
2019-02-24T15:36:51.568Z,26.10
2019-02-24T15:39:22.608Z,25.70
2019-02-24T15:41:53.730Z,28.10
2019-02-24T15:44:24.767Z,26.80
2019-02-24T15:46:55.778Z,26.60
2019-02-24T15:49:26.810Z,25.90
2019-02-24T15:51:57.817Z,26.30
2019-02-24T15:54:29.025Z,26.70
2019-02-24T15:57:00.033Z,25.80
2019-02-24T15:59:31.076Z,26.70
2019-02-24T16:02:02.131Z,26.70
2019-02-24T16:04:33.170Z,27.10
2019-02-24T16:07:04.208Z,27.10
2019-02-24T16:09:35.217Z,27.60
2019-02-24T16:12:06.263Z,27.90
2019-02-24T16:14:37.187Z,27.90
2019-02-24T16:17:08.276Z,29.20
2019-02-24T16:19:40.310Z,29.80
2019-02-24T16:22:11.386Z,31.00
2019-02-24T16:24:42.423Z,31.70
2019-02-24T16:27:13.493Z,32.80
2019-02-24T16:29:44.534Z,34.50
2019-02-24T16:32:16.594Z,34.80
2019-02-24T16:34:47.724Z,35.30
2019-02-24T16:37:18.781Z,37.60
2019-02-24T16:39:49.806Z,38.40
2019-02-24T16:42:20.861Z,39.60
2019-02-24T16:44:51.956Z,39.70
2019-02-24T16:47:23.101Z,40.10
2019-02-24T16:49:54.132Z,50.00
2019-02-24T16:52:25.173Z,42.80
2019-02-24T16:54:56.205Z,42.10
2019-02-24T16:57:27.263Z,44.60
2019-02-24T16:59:58.314Z,46.10
2019-02-24T17:02:29.375Z,46.40
2019-02-24T17:05:00.435Z,46.10
2019-02-24T17:07:34.224Z,46.50
2019-02-24T17:10:11.144Z,47.30
2019-02-24T17:12:42.272Z,48.90
2019-02-24T17:15:14.052Z,49.70
2019-02-24T17:17:45.076Z,49.30
2019-02-24T17:20:25.349Z,50.00
2019-02-24T17:22:56.501Z,50.90
2019-02-24T17:25:27.582Z,52.50
2019-02-24T17:27:58.630Z,53.00
2019-02-24T17:30:29.751Z,53.90
2019-02-24T17:33:00.778Z,54.60
2019-02-24T17:35:31.832Z,55.10
2019-02-24T17:38:02.867Z,55.40
2019-02-24T17:40:33.924Z,56.40
2019-02-24T17:43:04.998Z,56.90
2019-02-24T17:45:36.058Z,58.20
2019-02-24T17:48:07.082Z,58.10
2019-02-24T17:50:38.137Z,59.30
2019-02-24T17:53:09.170Z,58.60
2019-02-24T17:55:40.301Z,59.70
2019-02-24T17:58:11.335Z,60.00
2019-02-24T18:00:59.090Z,60.30
2019-02-24T18:03:38.837Z,60.20
2019-02-24T18:06:02.880Z,63.50
2019-02-24T18:08:33.919Z,63.30
2019-02-24T18:11:05.049Z,63.30
2019-02-24T18:13:36.100Z,65.90
2019-02-24T18:16:07.171Z,67.50
2019-02-24T18:18:38.216Z,69.30
2019-02-24T18:21:09.252Z,70.70
2019-02-24T18:23:40.315Z,71.80
2019-02-24T18:26:11.349Z,72.00
2019-02-24T18:28:42.422Z,73.10
2019-02-24T18:31:13.453Z,77.40
2019-02-24T18:33:48.263Z,81.90
2019-02-24T18:36:17.254Z,83.80
2019-02-24T18:38:48.320Z,85.10
2019-02-24T18:41:19.351Z,86.90
2019-02-24T18:43:50.418Z,89.10
2019-02-24T18:46:21.565Z,91.00
2019-02-24T18:48:52.821Z,93.70
2019-02-24T18:51:23.911Z,95.10
2019-02-24T18:53:55.933Z,96.10
2019-02-24T18:56:27.034Z,98.60
2019-02-24T18:58:58.100Z,99.90
2019-02-24T19:01:29.169Z,99.90
2019-02-24T19:04:00.233Z,99.90
2019-02-24T19:06:38.924Z,99.90
2019-02-24T19:09:04.080Z,99.90
2019-02-24T19:11:36.698Z,99.90
2019-02-24T19:14:07.742Z,99.90
2019-02-24T19:16:38.810Z,99.90
2019-02-24T19:19:09.862Z,99.90
2019-02-24T19:21:40.942Z,99.90
2019-02-24T19:24:11.991Z,99.90
2019-02-24T19:26:43.071Z,99.90
2019-02-24T19:29:14.117Z,99.90
2019-02-24T19:31:45.206Z,99.90
2019-02-24T19:34:16.234Z,99.90
2019-02-24T19:36:48.605Z,99.90
2019-02-24T19:39:20.404Z,99.90
2019-02-24T19:41:51.509Z,99.90
2019-02-24T19:44:22.552Z,99.90
2019-02-24T19:46:53.732Z,99.90
2019-02-24T19:49:27.777Z,99.90
2019-02-24T19:51:59.019Z,99.90
2019-02-24T19:54:30.112Z,99.90
2019-02-24T19:57:01.186Z,99.90
2019-02-24T19:59:32.263Z,99.90
2019-02-24T20:02:03.320Z,99.90
2019-02-24T20:04:34.381Z,99.90
2019-02-24T20:07:05.530Z,99.90
2019-02-24T20:09:36.593Z,99.90
2019-02-24T20:12:07.641Z,99.90
2019-02-24T20:14:38.721Z,99.90
2019-02-24T20:17:09.763Z,99.90
2019-02-24T20:19:40.838Z,99.90
2019-02-24T20:22:11.890Z,99.90
2019-02-24T20:24:43.065Z,99.90
2019-02-24T20:27:14.162Z,99.90
2019-02-24T20:29:45.245Z,99.90
2019-02-24T20:32:18.035Z,99.90
2019-02-24T20:34:49.105Z,99.90
2019-02-24T20:37:20.201Z,99.90
2019-02-24T20:39:51.275Z,99.90
2019-02-24T20:42:22.341Z,99.90
2019-02-24T20:44:53.423Z,99.90
2019-02-24T20:47:24.497Z,99.90
2019-02-24T20:49:55.542Z,99.90
2019-02-24T20:52:26.609Z,99.90
2019-02-24T20:54:57.664Z,99.90
2019-02-24T20:57:28.749Z,99.90
2019-02-24T20:59:59.809Z,99.90
2019-02-24T21:02:31.135Z,99.90
2019-02-24T21:05:02.186Z,99.90
2019-02-24T21:07:33.253Z,99.90
2019-02-24T21:10:06.096Z,99.90
2019-02-24T21:12:37.158Z,99.90
2019-02-24T21:15:12.594Z,99.90
2019-02-24T21:17:43.685Z,99.90
2019-02-24T21:20:24.610Z,99.90
2019-02-24T21:22:55.707Z,99.90
2019-02-24T21:25:26.752Z,99.90
2019-02-24T21:27:57.832Z,99.90
2019-02-24T21:30:28.874Z,99.90
2019-02-24T21:32:59.950Z,99.90
2019-02-24T21:35:30.994Z,99.90
2019-02-24T21:38:02.082Z,99.90
2019-02-24T21:40:33.152Z,99.90
2019-02-24T21:43:04.197Z,99.90
2019-02-24T21:45:35.274Z,99.90
2019-02-24T21:48:06.335Z,99.90
2019-02-24T21:50:37.409Z,99.90
2019-02-24T21:53:08.463Z,99.90
2019-02-24T21:55:39.542Z,99.90
2019-02-24T21:58:10.589Z,99.90
2019-02-24T22:00:41.763Z,99.90
2019-02-24T22:03:12.816Z,99.90
2019-02-24T22:05:44.895Z,99.90
2019-02-24T22:08:15.943Z,99.90
2019-02-24T22:10:47.030Z,99.90
2019-02-24T22:13:18.066Z,99.90
2019-02-24T22:15:49.144Z,99.90
2019-02-24T22:18:20.211Z,99.90
2019-02-24T22:20:51.287Z,99.90
2019-02-24T22:23:22.371Z,99.90
2019-02-24T22:25:53.409Z,99.90
2019-02-24T22:28:24.483Z,99.90
2019-02-24T22:30:55.530Z,99.90
2019-02-24T22:33:26.596Z,99.90
2019-02-24T22:35:57.640Z,99.90
2019-02-24T22:38:28.714Z,99.90
2019-02-24T22:40:59.756Z,99.90
2019-02-24T22:43:30.836Z,99.90
2019-02-24T22:46:01.888Z,99.90
2019-02-24T22:48:32.975Z,99.90
2019-02-24T22:51:05.025Z,99.90
2019-02-24T22:53:36.152Z,99.90
2019-02-24T22:56:07.259Z,99.90
2019-02-24T22:58:38.339Z,99.90
2019-02-24T23:01:11.742Z,99.90
2019-02-24T23:03:42.819Z,99.90
2019-02-24T23:06:13.964Z,99.90
2019-02-24T23:08:45.134Z,99.90
2019-02-24T23:11:16.211Z,99.90
2019-02-24T23:13:47.248Z,99.90
2019-02-24T23:16:18.321Z,99.90
2019-02-24T23:18:50.381Z,99.90
2019-02-24T23:21:21.465Z,99.90
2019-02-24T23:23:52.509Z,99.90
2019-02-24T23:26:23.577Z,99.90
2019-02-24T23:28:54.616Z,99.90
2019-02-24T23:31:25.705Z,99.90
2019-02-24T23:33:56.751Z,99.90
2019-02-24T23:36:27.824Z,99.90
2019-02-24T23:38:58.863Z,99.90
2019-02-24T23:41:29.926Z,99.90
2019-02-24T23:44:00.969Z,99.90
2019-02-24T23:46:32.040Z,99.90
2019-02-24T23:49:03.092Z,99.90
2019-02-24T23:51:34.227Z,99.90
2019-02-24T23:54:05.329Z,99.90
2019-02-24T23:56:36.597Z,99.90
2019-02-24T23:59:07.937Z,99.90
